createdAt,value
2023-03-18T02:11:41.349Z,1.47
2023-03-18T03:55:44.695Z,1.24
2023-03-18T03:59:44.912Z,1.21
2023-03-18T04:03:45.608Z,1.30
2023-03-18T04:07:45.341Z,1.21
2023-03-18T04:11:45.527Z,1.18
2023-03-18T04:15:45.717Z,1.26
2023-03-18T04:19:45.852Z,1.18
2023-03-18T04:23:46.076Z,1.15
2023-03-18T04:27:46.246Z,1.18
2023-03-18T04:31:46.527Z,1.21
2023-03-18T04:35:46.764Z,1.17
2023-03-18T04:39:46.860Z,1.12
2023-03-18T04:43:47.049Z,1.11
2023-03-18T04:47:47.231Z,1.12
2023-03-18T04:51:47.421Z,1.08
2023-03-18T04:55:47.605Z,1.10
2023-03-18T04:59:47.794Z,1.23
2023-03-18T05:03:48.126Z,1.17
2023-03-18T05:07:48.175Z,1.07
2023-03-18T05:11:48.353Z,1.22
2023-03-18T05:15:48.558Z,1.13
2023-03-18T05:19:48.768Z,1.16
2023-03-18T05:23:48.952Z,1.19
2023-03-18T05:27:49.177Z,1.20
2023-03-18T05:31:49.415Z,1.26
2023-03-18T05:35:49.574Z,1.23
2023-03-18T05:39:50.574Z,1.25
2023-03-18T05:43:49.954Z,1.30
2023-03-18T05:47:50.190Z,1.28
2023-03-18T05:51:50.352Z,1.26
2023-03-18T05:55:50.550Z,1.19
2023-03-18T05:59:50.743Z,1.29
2023-03-18T06:03:51.105Z,1.23
2023-03-18T06:07:51.579Z,1.25
2023-03-18T06:11:51.598Z,1.26
2023-03-18T06:15:51.499Z,1.20
2023-03-18T06:19:52.090Z,1.14
2023-03-18T06:23:51.884Z,1.19
2023-03-18T06:27:52.093Z,1.20
2023-03-18T06:31:52.390Z,1.24
2023-03-18T06:35:52.504Z,1.19
2023-03-18T06:39:52.637Z,1.18
2023-03-18T06:43:52.809Z,1.19
2023-03-18T06:47:52.971Z,1.20
2023-03-18T06:51:53.131Z,1.21
2023-03-18T06:55:53.284Z,1.29
2023-03-18T06:59:53.437Z,1.31
2023-03-18T07:03:53.585Z,1.29
2023-03-18T07:07:53.730Z,1.21
2023-03-18T07:11:53.898Z,1.11
2023-03-18T07:15:54.031Z,1.13
2023-03-18T07:19:54.126Z,1.12
2023-03-18T07:23:54.238Z,1.10
2023-03-18T07:59:54.988Z,1.26
2023-03-18T08:07:54.925Z,1.19
2023-03-18T08:11:54.964Z,1.25
2023-03-18T08:15:55.088Z,1.15
2023-03-18T08:19:55.084Z,1.13
2023-03-18T08:23:55.090Z,1.08
2023-03-18T08:27:55.089Z,1.06
2023-03-18T08:31:55.224Z,1.07
2023-03-18T08:35:55.269Z,1.00
2023-03-18T08:39:55.184Z,0.99
2023-03-18T08:43:55.194Z,0.99
2023-03-18T08:47:55.210Z,0.94
2023-03-18T08:51:55.209Z,0.87
2023-03-18T08:55:55.214Z,0.86
2023-03-18T08:59:55.221Z,0.90
2023-03-18T09:03:55.234Z,0.90
2023-03-18T09:07:55.214Z,0.88
2023-03-18T09:11:55.229Z,0.90
2023-03-18T09:15:55.236Z,0.83
2023-03-18T09:19:55.215Z,0.84
2023-03-18T09:23:55.214Z,0.81
2023-03-18T09:27:55.286Z,0.75
2023-03-18T09:31:55.200Z,0.70
2023-03-18T09:35:55.177Z,0.74
2023-03-18T09:39:55.182Z,0.69
2023-03-18T09:43:55.148Z,0.70
2023-03-18T09:47:55.169Z,0.67
2023-03-18T09:51:55.203Z,0.69
2023-03-18T09:55:55.133Z,0.68
2023-03-18T09:59:55.104Z,0.60
2023-03-18T10:03:55.146Z,0.70
2023-03-18T10:07:55.100Z,0.67
2023-03-18T10:11:55.041Z,0.60
2023-03-18T10:15:55.056Z,0.67
2023-03-18T10:19:55.025Z,0.54
2023-03-18T10:27:54.989Z,0.75
2023-03-18T10:31:55.019Z,0.56
2023-03-18T10:35:55.056Z,0.52
2023-03-18T10:39:55.013Z,0.57
2023-03-18T10:43:55.022Z,0.53
2023-03-18T10:51:54.986Z,0.51
2023-03-18T10:55:57.456Z,0.55
2023-03-18T10:59:55.155Z,0.59
2023-03-18T11:03:55.121Z,0.53
2023-03-18T11:07:55.129Z,0.50
2023-03-18T13:23:54.551Z,0.53
2023-03-18T13:27:54.520Z,0.55
2023-03-18T13:31:54.452Z,0.52
2023-03-18T13:35:54.584Z,0.56
2023-03-18T13:39:54.402Z,0.59
2023-03-18T13:43:54.408Z,0.55
2023-03-18T13:47:54.440Z,0.53
2023-03-18T13:51:54.456Z,0.57
2023-03-18T13:55:54.541Z,0.52
2023-03-18T17:07:54.789Z,1.14
2023-03-18T17:11:54.789Z,1.37
2023-03-18T17:15:54.783Z,1.24
2023-03-18T17:19:54.831Z,1.28
2023-03-18T17:23:54.863Z,1.39
2023-03-18T17:27:54.901Z,1.38
2023-03-18T17:31:54.957Z,1.20
2023-03-18T17:35:55.064Z,1.30
2023-03-18T17:39:55.132Z,1.23
2023-03-18T17:43:55.209Z,1.47
2023-03-18T17:47:55.272Z,1.15
2023-03-18T17:51:55.313Z,1.15
2023-03-18T17:55:55.370Z,1.20
2023-03-18T17:59:55.464Z,1.38
2023-03-18T18:03:55.497Z,1.43
2023-03-18T18:07:55.556Z,1.52
2023-03-18T18:11:55.660Z,1.38
2023-03-18T18:15:55.758Z,1.70
2023-03-18T18:19:55.786Z,2.21
2023-03-18T18:23:55.991Z,1.85
2023-03-18T18:27:56.020Z,2.13
2023-03-18T18:31:56.105Z,2.79
2023-03-18T22:52:02.981Z,1.65
2023-03-18T22:56:03.094Z,1.65
2023-03-18T23:00:03.281Z,1.71
2023-03-18T23:04:03.416Z,1.72
2023-03-18T23:08:03.583Z,1.70
2023-03-18T23:12:03.745Z,1.66
2023-03-18T23:16:03.930Z,1.65
2023-03-18T23:20:04.102Z,1.83
2023-03-18T23:24:04.278Z,2.01
2023-03-18T23:28:04.459Z,1.99
2023-03-18T23:32:04.621Z,1.98
2023-03-18T23:36:04.870Z,1.96
2023-03-18T23:40:04.977Z,1.93
2023-03-18T23:44:05.134Z,1.91
2023-03-18T23:48:05.301Z,1.87
2023-03-18T23:52:05.495Z,1.81
2023-03-18T23:56:05.675Z,1.73
